<?xml version='1.0' encoding='UTF-8'?>
<gpx xmlns="http://www.topografix.com/GPX/1/1" creator="www.balnam.be" version="1.1" xmlns:xsi="http://www.w3.org/2001/XMLSchema-instance" xsi:schemaLocation="http://www.topografix.com/GPX/1/1 http://www.topografix.com/GPX/1/1/gpx.xsd">
<trk>
<name>nvvovLv523</name>
<cmt>s</cmt>
<desc>Olloy-sur-Viroin Chemin n°Lv523 Rue de Baimont / Rue du Vicinal / Chemin du Vicinal</desc>
<link href="https://chemins.be/olloy/chemin/Lv523"/><trkseg>
<trkpt lat="50.073027" lon="4.604279"><time>2026-05-02T16:08:16Z</time></trkpt>
<trkpt lat="50.073093" lon="4.605678"><time>2026-05-02T16:18:16Z</time></trkpt>
<trkpt lat="50.072855" lon="4.606181"><time>2026-05-02T16:28:16Z</time></trkpt>
<trkpt lat="50.072709" lon="4.606242"><time>2026-05-02T16:38:16Z</time></trkpt>
<trkpt lat="50.072445" lon="4.606346"><time>2026-05-02T16:48:16Z</time></trkpt>
<trkpt lat="50.071897" lon="4.606473"><time>2026-05-02T16:58:16Z</time></trkpt>
</trkseg></trk>
<trk>
<name>nvvovLv523</name>
<cmt>v</cmt>
<desc>Olloy-sur-Viroin Chemin n°Lv523 Rue de Baimont / Rue du Vicinal / Chemin du Vicinal</desc>
<link href="https://chemins.be/olloy/chemin/Lv523"/><trkseg>
<trkpt lat="50.071897" lon="4.606473"><time>2026-05-02T16:58:16Z</time></trkpt>
<trkpt lat="50.071636" lon="4.606427"><time>2026-05-02T17:08:16Z</time></trkpt>
<trkpt lat="50.070878" lon="4.606406"><time>2026-05-02T17:18:16Z</time></trkpt>
<trkpt lat="50.069688" lon="4.605866"><time>2026-05-02T17:28:16Z</time></trkpt>
<trkpt lat="50.068728" lon="4.604796"><time>2026-05-02T17:38:16Z</time></trkpt>
<trkpt lat="50.067468" lon="4.603486"><time>2026-05-02T17:48:16Z</time></trkpt>
<trkpt lat="50.067018" lon="4.601306"><time>2026-05-02T17:58:16Z</time></trkpt>
<trkpt lat="50.066158" lon="4.599236"><time>2026-05-02T18:08:16Z</time></trkpt>
<trkpt lat="50.065508" lon="4.598726"><time>2026-05-02T18:18:16Z</time></trkpt>
<trkpt lat="50.063198" lon="4.598426"><time>2026-05-02T18:28:16Z</time></trkpt>
<trkpt lat="50.062568" lon="4.598686"><time>2026-05-02T18:38:16Z</time></trkpt>
<trkpt lat="50.061558" lon="4.599446"><time>2026-05-02T18:48:16Z</time></trkpt>
<trkpt lat="50.061108" lon="4.599596"><time>2026-05-02T18:58:16Z</time></trkpt>
<trkpt lat="50.059248" lon="4.598766"><time>2026-05-02T19:08:16Z</time></trkpt>
<trkpt lat="50.058637" lon="4.598042"><time>2026-05-02T19:18:16Z</time></trkpt>
<trkpt lat="50.058161" lon="4.597101"><time>2026-05-02T19:28:16Z</time></trkpt>
<trkpt lat="50.057328" lon="4.594246"><time>2026-05-02T19:38:16Z</time></trkpt>
<trkpt lat="50.056962" lon="4.593693"><time>2026-05-02T19:48:16Z</time></trkpt>
<trkpt lat="50.056868" lon="4.593576"><time>2026-05-02T19:58:16Z</time></trkpt>
<trkpt lat="50.056386" lon="4.592835"><time>2026-05-02T20:08:16Z</time></trkpt>
<trkpt lat="50.056114" lon="4.592669"><time>2026-05-02T20:18:16Z</time></trkpt>
<trkpt lat="50.055118" lon="4.592796"><time>2026-05-02T20:28:16Z</time></trkpt>
<trkpt lat="50.053428" lon="4.592876"><time>2026-05-02T20:38:16Z</time></trkpt>
<trkpt lat="50.050528" lon="4.591466"><time>2026-05-02T20:48:16Z</time></trkpt>
<trkpt lat="50.047957" lon="4.593896"><time>2026-05-02T20:58:16Z</time></trkpt>
<trkpt lat="50.046027" lon="4.594936"><time>2026-05-02T21:08:16Z</time></trkpt>
<trkpt lat="50.045437" lon="4.595446"><time>2026-05-02T21:18:16Z</time></trkpt>
<trkpt lat="50.044587" lon="4.594476"><time>2026-05-02T21:28:16Z</time></trkpt>
<trkpt lat="50.040947" lon="4.593346"><time>2026-05-02T21:38:16Z</time></trkpt>
<trkpt lat="50.039987" lon="4.595696"><time>2026-05-02T21:48:16Z</time></trkpt>
<trkpt lat="50.038047" lon="4.596926"><time>2026-05-02T21:58:16Z</time></trkpt>
<trkpt lat="50.035237" lon="4.596956"><time>2026-05-02T22:08:16Z</time></trkpt>
<trkpt lat="50.032835" lon="4.598724"><time>2026-05-02T22:18:16Z</time></trkpt>
<trkpt lat="50.032287" lon="4.599786"><time>2026-05-02T22:28:16Z</time></trkpt>
</trkseg>
</trk>
</gpx>